Time;durP1;ratioP1;P1;durP2;ratioP2;P2;SDS_P1;SDS_P2;PMS_P1;PMS_P2;Temp;Humidity;BMP_temperature;BMP_pressure;BME280_temperature;BME280_humidity;BME280_pressure;Samples;Min_cycle;Max_cycle;Signal;HPM_P1;HPM_P2
2022/03/30 00:02:22;;;;;;;3.42;2.30;;;20.90;57.70;;;;;;4969618;28;20333;-57
2022/03/30 00:04:56;;;;;;;19.17;5.55;;;20.90;57.60;;;;;;4969955;28;20285;-57
2022/03/30 00:07:31;;;;;;;22.73;5.97;;;21.00;58.00;;;;;;4970178;28;20232;-57
2022/03/30 00:10:02;;;;;;;16.13;4.63;;;21.00;58.30;;;;;;4970582;28;20253;-58
2022/03/30 00:12:33;;;;;;;16.10;4.55;;;21.00;57.90;;;;;;4965046;28;20278;-58
2022/03/30 00:15:04;;;;;;;16.50;5.10;;;21.00;57.90;;;;;;4969935;28;20194;-57
2022/03/30 00:17:34;;;;;;;21.20;5.93;;;21.00;57.80;;;;;;4967382;28;20666;-58
2022/03/30 00:20:07;;;;;;;22.90;5.88;;;21.10;57.80;;;;;;4969614;28;20380;-57
2022/03/30 00:22:38;;;;;;;14.00;5.03;;;21.10;57.70;;;;;;4968016;28;20221;-57
2022/03/30 00:25:09;;;;;;;13.57;5.22;;;21.10;57.70;;;;;;4969478;28;20646;-57
2022/03/30 00:27:41;;;;;;;16.33;5.38;;;21.10;57.70;;;;;;4969581;28;20273;-57
2022/03/30 00:30:13;;;;;;;13.70;4.97;;;21.10;57.60;;;;;;4970145;28;20194;-58
2022/03/30 00:32:44;;;;;;;10.90;4.30;;;21.10;57.60;;;;;;4969968;28;20289;-57
2022/03/30 00:35:18;;;;;;;16.75;5.05;;;21.10;57.60;;;;;;4969243;28;20290;-57
2022/03/30 00:37:48;;;;;;;12.82;5.25;;;21.10;57.60;;;;;;4970186;28;20607;-57
2022/03/30 00:40:19;;;;;;;9.43;4.55;;;21.10;57.60;;;;;;4964194;28;20308;-57
2022/03/30 00:42:54;;;;;;;14.80;5.40;;;21.10;57.60;;;;;;5224627;23;20233;-62
2022/03/30 00:45:29;;;;;;;15.02;5.32;;;21.20;57.70;;;;;;4966425;28;20529;-56
2022/03/30 00:48:12;;;;;;;12.30;4.72;;;21.20;57.70;;;;;;4955488;28;20613;-55
2022/03/30 00:50:52;;;;;;;12.07;4.93;;;21.20;57.70;;;;;;4941162;29;20595;-52
2022/03/30 00:53:29;;;;;;;14.23;5.25;;;21.20;57.70;;;;;;4945077;28;20635;-59
2022/03/30 00:56:00;;;;;;;11.70;4.97;;;21.20;57.70;;;;;;4954895;23;20592;-63
2022/03/30 00:58:33;;;;;;;11.95;5.07;;;21.30;57.80;;;;;;4937637;28;20262;-62
2022/03/30 01:01:03;;;;;;;14.55;5.25;;;21.20;57.70;;;;;;4930826;29;20306;-63
2022/03/30 01:03:34;;;;;;;13.77;5.47;;;21.30;57.70;;;;;;4931141;29;20291;-60
2022/03/30 01:06:07;;;;;;;10.95;4.97;;;21.30;57.60;;;;;;4930658;29;20195;-60
2022/03/30 01:08:37;;;;;;;11.68;4.80;;;21.30;57.80;;;;;;4930322;29;20606;-64
2022/03/30 01:11:08;;;;;;;9.70;5.18;;;21.30;57.80;;;;;;4930845;29;20283;-64
2022/03/30 01:13:41;;;;;;;8.05;4.72;;;21.30;57.90;;;;;;4930250;29;20294;-53
2022/03/30 01:16:14;;;;;;;10.43;4.95;;;21.30;58.50;;;;;;4928077;29;20196;-61
2022/03/30 01:18:44;;;;;;;8.55;4.70;;;21.30;57.90;;;;;;4930473;29;20896;-56
2022/03/30 01:21:18;;;;;;;13.73;5.15;;;21.30;57.80;;;;;;4930984;29;20207;-59
2022/03/30 01:23:48;;;;;;;8.40;4.40;;;21.30;57.90;;;;;;4930450;29;20646;-61
2022/03/30 01:26:18;;;;;;;10.02;4.80;;;21.30;57.90;;;;;;4930984;29;20639;-57
2022/03/30 01:28:49;;;;;;;7.57;3.85;;;21.30;57.80;;;;;;4930855;29;20314;-58
2022/03/30 01:34:06;;;;;;;9.50;4.40;;;21.40;57.90;;;;;;4933515;29;20284;-54
2022/03/30 01:36:38;;;;;;;11.23;4.22;;;21.40;57.90;;;;;;4934477;29;20286;-50
2022/03/30 01:39:12;;;;;;;7.68;3.90;;;21.40;57.90;;;;;;4935066;29;20275;-57
2022/03/30 01:41:42;;;;;;;10.50;4.20;;;21.40;57.90;;;;;;4934535;29;20207;-55
2022/03/30 01:44:15;;;;;;;8.20;3.85;;;21.40;58.00;;;;;;4933908;29;20282;-52
2022/03/30 01:46:46;;;;;;;9.30;4.30;;;21.40;58.00;;;;;;4933977;29;20363;-59
2022/03/30 01:49:21;;;;;;;6.97;3.80;;;21.40;58.00;;;;;;4934174;29;20654;-54
2022/03/30 01:51:53;;;;;;;8.70;4.35;;;21.40;58.00;;;;;;4934051;29;20714;-58
2022/03/30 01:54:25;;;;;;;7.70;4.07;;;21.40;58.00;;;;;;4934145;29;20234;-61
2022/03/30 01:56:57;;;;;;;7.60;3.33;;;21.40;57.90;;;;;;4934434;29;20215;-60
2022/03/30 01:59:28;;;;;;;5.85;2.78;;;21.40;57.90;;;;;;4933752;29;20226;-61
2022/03/30 02:01:58;;;;;;;3.45;1.95;;;21.50;58.50;;;;;;4933489;29;20278;-61
2022/03/30 02:04:29;;;;;;;4.32;1.80;;;21.50;59.30;;;;;;4933357;29;20200;-61
2022/03/30 02:07:02;;;;;;;2.45;1.60;;;21.50;59.70;;;;;;4933678;29;20287;-58
2022/03/30 02:09:32;;;;;;;2.53;1.40;;;21.50;60.10;;;;;;4933680;29;21562;-62
2022/03/30 02:12:03;;;;;;;2.60;1.27;;;21.60;60.40;;;;;;4934422;29;20635;-58
2022/03/30 02:14:33;;;;;;;2.20;1.25;;;21.60;60.60;;;;;;4931855;29;20206;-59
2022/03/30 02:17:04;;;;;;;2.38;1.30;;;21.60;60.70;;;;;;4930761;29;20197;-53
2022/03/30 02:19:34;;;;;;;2.67;1.13;;;21.60;60.50;;;;;;4916235;29;20296;-64
2022/03/30 02:22:07;;;;;;;2.08;1.00;;;21.70;60.40;;;;;;4926750;29;20283;-55
2022/03/30 02:24:37;;;;;;;1.88;1.10;;;21.70;60.20;;;;;;4933227;29;20207;-57
2022/03/30 02:27:08;;;;;;;1.55;0.90;;;21.70;60.00;;;;;;4933010;29;20286;-53
2022/03/30 02:29:39;;;;;;;2.20;1.13;;;21.70;59.90;;;;;;4933574;29;20727;-61
2022/03/30 02:32:10;;;;;;;2.58;1.00;;;21.70;59.80;;;;;;4933342;29;20199;-54
2022/03/30 02:34:41;;;;;;;1.85;1.10;;;21.70;59.80;;;;;;4933009;29;20211;-58
2022/03/30 02:37:13;;;;;;;2.05;1.20;;;21.70;59.70;;;;;;4933368;29;20205;-58
2022/03/30 02:39:44;;;;;;;1.55;1.10;;;21.80;59.60;;;;;;4933015;29;20219;-58
2022/03/30 02:42:15;;;;;;;1.83;0.90;;;21.80;59.60;;;;;;4933951;29;20282;-55
2022/03/30 02:44:45;;;;;;;2.08;1.27;;;21.80;59.50;;;;;;4932397;29;20283;-63
2022/03/30 02:47:16;;;;;;;2.85;1.20;;;21.80;59.40;;;;;;4932413;29;20303;-56
2022/03/30 02:50:07;;;;;;;1.40;1.17;;;21.80;59.30;;;;;;4933523;29;20658;-56
2022/03/30 02:52:39;;;;;;;3.08;1.50;;;21.80;59.20;;;;;;4932691;29;20618;-57
2022/03/30 02:55:10;;;;;;;1.90;0.98;;;21.80;59.20;;;;;;4932023;29;20196;-53
2022/03/30 02:57:41;;;;;;;1.83;0.95;;;21.90;59.20;;;;;;4929911;29;20870;-61
2022/03/30 03:00:15;;;;;;;2.97;1.30;;;21.80;59.10;;;;;;4932856;29;20659;-63
2022/03/30 03:02:45;;;;;;;2.15;0.90;;;21.80;59.00;;;;;;4932661;29;20203;-53
2022/03/30 03:05:16;;;;;;;1.75;1.00;;;21.90;59.10;;;;;;4932205;29;20282;-65
2022/03/30 03:07:48;;;;;;;2.35;1.20;;;21.90;59.00;;;;;;4932602;29;20294;-64
2022/03/30 03:10:19;;;;;;;2.28;1.02;;;21.90;59.10;;;;;;4931868;29;20286;-63
2022/03/30 03:12:49;;;;;;;1.65;0.88;;;21.90;59.20;;;;;;4931771;29;20295;-52
2022/03/30 03:15:20;;;;;;;1.83;0.93;;;21.90;59.20;;;;;;4931836;29;20287;-55
2022/03/30 03:17:50;;;;;;;1.58;1.05;;;21.90;59.10;;;;;;4932769;29;20243;-57
2022/03/30 03:20:21;;;;;;;1.00;0.75;;;21.90;59.00;;;;;;4932307;29;20234;-50
2022/03/30 03:22:53;;;;;;;1.38;0.95;;;21.90;58.90;;;;;;4915994;29;20287;-56
2022/03/30 03:25:24;;;;;;;1.80;1.05;;;21.90;58.90;;;;;;4914228;29;20288;-61
2022/03/30 03:27:56;;;;;;;1.50;0.88;;;21.90;58.80;;;;;;4913468;29;20696;-55
2022/03/30 03:30:26;;;;;;;1.83;0.90;;;21.90;58.80;;;;;;4913305;29;20236;-54
2022/03/30 03:32:57;;;;;;;2.42;1.00;;;21.90;58.80;;;;;;4913383;29;20196;-58
2022/03/30 03:35:28;;;;;;;1.45;1.17;;;21.90;58.90;;;;;;4912876;29;20204;-52
2022/03/30 03:38:01;;;;;;;2.10;1.05;;;21.90;58.90;;;;;;4912525;29;20220;-57
2022/03/30 03:40:35;;;;;;;2.90;0.98;;;21.90;58.80;;;;;;4913149;29;20323;-56
2022/03/30 03:43:06;;;;;;;1.40;1.00;;;22.00;58.80;;;;;;4914278;29;20274;-64
2022/03/30 03:45:37;;;;;;;1.73;0.93;;;22.00;58.70;;;;;;4914803;29;20833;-50
2022/03/30 03:48:08;;;;;;;1.10;1.00;;;22.00;58.80;;;;;;4914277;29;20307;-60
2022/03/30 03:50:39;;;;;;;1.20;0.90;;;22.00;58.80;;;;;;4914580;29;20214;-62
2022/03/30 03:53:11;;;;;;;1.50;0.82;;;22.00;58.90;;;;;;4913852;29;20204;-64
2022/03/30 03:55:44;;;;;;;1.52;0.95;;;22.00;58.90;;;;;;4913868;29;20259;-59
2022/03/30 03:58:15;;;;;;;1.73;0.93;;;22.00;58.90;;;;;;4914188;29;20307;-64
2022/03/30 04:00:46;;;;;;;1.33;0.60;;;22.00;59.00;;;;;;4916937;29;20223;-60
2022/03/30 04:03:16;;;;;;;1.10;0.70;;;22.00;59.10;;;;;;4931828;29;20384;-60
2022/03/30 04:05:47;;;;;;;2.08;1.17;;;22.00;59.00;;;;;;4931711;29;20292;-55
2022/03/30 04:08:20;;;;;;;1.77;0.95;;;22.00;59.00;;;;;;4932298;29;20219;-59
2022/03/30 04:10:50;;;;;;;2.28;0.90;;;22.00;58.90;;;;;;4931745;29;20287;-64
2022/03/30 04:13:20;;;;;;;1.33;0.80;;;22.00;58.80;;;;;;4928652;29;20223;-64
2022/03/30 04:15:51;;;;;;;1.85;0.80;;;22.00;58.70;;;;;;4931571;29;20298;-62
2022/03/30 04:18:23;;;;;;;1.25;0.60;;;22.00;58.70;;;;;;4930684;29;20247;-58
2022/03/30 04:20:53;;;;;;;0.95;0.63;;;22.00;58.70;;;;;;4931237;29;20224;-62
2022/03/30 04:23:26;;;;;;;1.33;0.90;;;22.00;58.70;;;;;;4929198;29;20308;-58
2022/03/30 04:25:56;;;;;;;1.63;0.88;;;22.00;58.70;;;;;;4931864;29;20231;-63
2022/03/30 04:28:26;;;;;;;1.00;0.73;;;22.00;58.80;;;;;;4931686;29;20307;-56
2022/03/30 04:30:57;;;;;;;0.70;0.60;;;22.00;58.70;;;;;;4930746;29;20211;-51
2022/03/30 04:33:27;;;;;;;1.13;0.80;;;22.00;58.70;;;;;;4931032;29;20200;-56
2022/03/30 04:35:58;;;;;;;2.63;0.80;;;22.00;58.90;;;;;;4931759;29;20206;-56
2022/03/30 04:38:30;;;;;;;1.15;0.90;;;22.00;58.90;;;;;;4930356;29;20583;-55
2022/03/30 04:41:01;;;;;;;1.75;0.77;;;22.00;59.10;;;;;;4931139;29;20227;-66
2022/03/30 04:43:31;;;;;;;1.75;0.80;;;22.00;59.10;;;;;;4930562;29;20227;-61
2022/03/30 04:46:02;;;;;;;1.08;0.85;;;22.00;59.10;;;;;;4931011;29;20287;-61
2022/03/30 04:48:32;;;;;;;1.35;0.60;;;22.00;59.10;;;;;;4930872;29;20294;-65
2022/03/30 04:51:03;;;;;;;0.63;0.63;;;22.00;59.20;;;;;;4930394;29;20227;-57
2022/03/30 04:53:35;;;;;;;1.13;0.70;;;22.00;59.20;;;;;;4929345;29;20286;-61
2022/03/30 04:56:06;;;;;;;1.20;0.85;;;22.00;59.20;;;;;;4929211;29;20200;-62
2022/03/30 04:58:37;;;;;;;0.60;0.52;;;22.00;59.20;;;;;;4929883;29;20298;-63
2022/03/30 05:01:07;;;;;;;1.92;0.82;;;22.00;59.20;;;;;;4930319;29;20310;-56
2022/03/30 05:03:38;;;;;;;1.27;0.60;;;22.00;59.10;;;;;;4931383;29;20604;-56
2022/03/30 05:06:08;;;;;;;0.85;0.68;;;22.00;59.10;;;;;;4930411;29;20286;-53
2022/03/30 05:08:44;;;;;;;0.60;0.60;;;22.00;59.10;;;;;;4933149;29;20282;-58
2022/03/30 05:11:14;;;;;;;0.90;0.70;;;22.00;59.00;;;;;;4934738;29;20199;-57
2022/03/30 05:13:44;;;;;;;0.60;0.60;;;22.00;59.00;;;;;;4935303;29;20230;-56
2022/03/30 05:16:15;;;;;;;0.68;0.60;;;22.00;59.10;;;;;;4934644;29;20207;-55
2022/03/30 05:18:46;;;;;;;2.75;1.00;;;22.00;59.10;;;;;;4934617;29;20215;-59
2022/03/30 05:21:16;;;;;;;1.00;0.80;;;22.00;59.10;;;;;;4934702;29;20601;-60
2022/03/30 05:23:49;;;;;;;1.40;0.70;;;22.00;59.20;;;;;;4933955;29;20203;-53
2022/03/30 05:26:19;;;;;;;0.80;0.75;;;22.00;59.20;;;;;;4934959;29;20290;-53
2022/03/30 05:28:49;;;;;;;1.10;0.80;;;22.00;59.30;;;;;;4934094;29;20338;-59
2022/03/30 05:31:20;;;;;;;0.90;0.68;;;22.00;59.30;;;;;;4934315;29;20214;-52
2022/03/30 05:33:50;;;;;;;0.55;0.50;;;22.00;59.40;;;;;;4933573;29;20303;-59
2022/03/30 05:36:21;;;;;;;2.42;0.63;;;22.00;59.30;;;;;;4933384;29;20273;-59
2022/03/30 05:38:53;;;;;;;0.50;0.50;;;22.00;59.40;;;;;;4933892;29;20227;-50
2022/03/30 05:41:24;;;;;;;0.85;0.60;;;22.00;59.20;;;;;;4934495;29;20246;-53
2022/03/30 05:43:54;;;;;;;1.90;0.80;;;22.00;59.10;;;;;;4933428;29;20229;-61
2022/03/30 05:46:25;;;;;;;1.48;0.70;;;22.00;59.10;;;;;;4934339;29;20192;-52
2022/03/30 05:48:55;;;;;;;1.13;0.70;;;22.00;59.20;;;;;;4933853;29;20306;-54
2022/03/30 05:51:26;;;;;;;0.90;0.60;;;22.00;59.30;;;;;;4933541;29;20191;-58
2022/03/30 05:53:58;;;;;;;0.70;0.60;;;22.00;59.30;;;;;;4934425;29;20682;-61
2022/03/30 05:59:12;;;;;;;0.63;0.57;;;21.90;59.30;;;;;;4934242;29;20270;-54
2022/03/30 06:01:42;;;;;;;0.70;0.55;;;21.90;59.40;;;;;;4933106;29;20226;-64
2022/03/30 06:04:15;;;;;;;1.70;0.70;;;22.00;59.40;;;;;;4930660;28;20296;-58
2022/03/30 06:06:45;;;;;;;0.90;0.60;;;21.90;59.30;;;;;;4932967;29;20278;-53
2022/03/30 06:09:18;;;;;;;0.70;0.60;;;21.90;59.40;;;;;;4932779;29;20635;-60
2022/03/30 06:11:48;;;;;;;0.60;0.60;;;21.90;59.40;;;;;;4933806;29;20242;-58
2022/03/30 06:14:20;;;;;;;1.80;0.73;;;21.90;59.50;;;;;;4933362;29;20283;-60
2022/03/30 06:16:50;;;;;;;0.50;0.50;;;22.00;59.50;;;;;;4934533;29;20206;-61
2022/03/30 06:19:21;;;;;;;1.25;0.60;;;21.90;59.50;;;;;;4933408;29;20294;-60
2022/03/30 06:21:52;;;;;;;1.50;0.80;;;21.90;59.50;;;;;;4932713;29;20770;-64
2022/03/30 06:24:24;;;;;;;0.73;0.73;;;21.90;59.50;;;;;;4932946;29;20339;-58
2022/03/30 06:26:55;;;;;;;0.45;0.45;;;21.90;59.40;;;;;;4932711;29;20206;-58
2022/03/30 06:29:28;;;;;;;0.50;0.50;;;21.90;59.20;;;;;;4933276;29;20298;-59
2022/03/30 06:31:59;;;;;;;0.90;0.70;;;21.90;59.20;;;;;;4931807;29;20294;-57
2022/03/30 06:34:29;;;;;;;0.70;0.70;;;21.90;59.20;;;;;;4933625;29;20247;-61
2022/03/30 06:37:00;;;;;;;0.80;0.60;;;21.90;59.20;;;;;;4933611;29;20286;-59
2022/03/30 06:39:32;;;;;;;0.70;0.50;;;21.90;59.30;;;;;;4933800;29;20227;-57
2022/03/30 06:42:03;;;;;;;0.70;0.60;;;21.90;59.20;;;;;;4933700;29;20223;-52
2022/03/30 06:44:34;;;;;;;0.60;0.57;;;21.90;59.20;;;;;;4926221;29;20200;-59
2022/03/30 06:47:04;;;;;;;0.68;0.50;;;21.90;59.20;;;;;;4915348;29;20196;-59
2022/03/30 06:49:35;;;;;;;1.38;0.68;;;21.80;59.20;;;;;;4914518;29;20234;-64
2022/03/30 06:52:06;;;;;;;0.70;0.70;;;21.80;59.30;;;;;;4913679;29;20295;-58
2022/03/30 06:54:39;;;;;;;0.90;0.55;;;21.80;59.60;;;;;;4914032;29;20286;-61
2022/03/30 06:57:10;;;;;;;0.60;0.60;;;21.80;59.40;;;;;;4913779;29;20212;-59
2022/03/30 06:59:40;;;;;;;0.60;0.60;;;21.80;59.40;;;;;;4913012;29;20295;-53
2022/03/30 07:02:14;;;;;;;0.68;0.63;;;21.80;59.40;;;;;;4914471;29;20228;-60
2022/03/30 07:04:44;;;;;;;0.50;0.50;;;21.80;59.40;;;;;;4914485;29;20200;-59
2022/03/30 07:10:18;;;;;;;0.73;0.70;;;21.80;59.30;;;;;;4913935;29;20235;-53
2022/03/30 07:12:49;;;;;;;0.52;0.50;;;21.80;59.00;;;;;;4914182;29;20640;-58
2022/03/30 07:15:21;;;;;;;0.60;0.60;;;21.80;59.00;;;;;;4914212;29;20283;-55
2022/03/30 07:17:52;;;;;;;0.85;0.70;;;21.80;59.00;;;;;;4914436;29;20303;-55
2022/03/30 07:20:25;;;;;;;1.95;0.60;;;21.70;59.00;;;;;;4914882;29;20619;-62
2022/03/30 07:22:57;;;;;;;0.88;0.50;;;21.70;58.90;;;;;;4913349;29;20227;-61
2022/03/30 07:25:31;;;;;;;0.65;0.52;;;21.70;58.90;;;;;;4914628;29;20644;-63
2022/03/30 07:28:03;;;;;;;0.57;0.40;;;21.70;58.90;;;;;;4914306;29;20226;-50
2022/03/30 07:30:36;;;;;;;0.45;0.40;;;21.70;59.00;;;;;;4913872;29;20207;-61
2022/03/30 07:33:07;;;;;;;0.77;0.70;;;21.70;59.00;;;;;;4914585;29;20204;-60
2022/03/30 07:35:39;;;;;;;0.60;0.60;;;21.70;59.10;;;;;;4914581;29;20715;-59
2022/03/30 07:38:09;;;;;;;0.47;0.47;;;21.70;59.20;;;;;;4914345;29;20231;-63
2022/03/30 07:40:42;;;;;;;0.52;0.50;;;21.70;59.30;;;;;;4914592;29;20290;-60
2022/03/30 07:43:16;;;;;;;0.70;0.50;;;21.70;59.30;;;;;;4914916;29;20299;-54
2022/03/30 07:45:47;;;;;;;0.45;0.45;;;21.70;59.30;;;;;;4913710;29;20300;-56
2022/03/30 07:48:19;;;;;;;0.63;0.57;;;21.70;59.30;;;;;;4913892;29;20659;-65
2022/03/30 07:50:50;;;;;;;0.50;0.50;;;21.70;59.40;;;;;;4914180;29;20239;-63
2022/03/30 07:53:20;;;;;;;0.60;0.57;;;21.70;59.40;;;;;;4914284;29;20287;-60
2022/03/30 07:55:53;;;;;;;0.82;0.60;;;21.70;59.40;;;;;;4914227;29;20299;-60
2022/03/30 07:58:23;;;;;;;0.52;0.52;;;21.70;59.30;;;;;;4914153;29;20563;-61
2022/03/30 08:00:54;;;;;;;0.82;0.52;;;21.70;59.30;;;;;;4914124;29;20613;-63
2022/03/30 08:03:24;;;;;;;0.63;0.50;;;21.60;59.10;;;;;;4914261;29;20255;-56
2022/03/30 08:05:55;;;;;;;0.73;0.60;;;21.60;59.10;;;;;;4914011;29;20860;-57
2022/03/30 08:08:25;;;;;;;0.40;0.40;;;21.60;59.10;;;;;;4914078;29;20643;-56
2022/03/30 08:10:57;;;;;;;1.13;0.70;;;21.60;59.10;;;;;;4913741;29;20680;-65
2022/03/30 08:13:28;;;;;;;0.73;0.50;;;21.60;59.10;;;;;;4913860;29;20210;-66
2022/03/30 08:15:58;;;;;;;0.68;0.60;;;21.60;59.10;;;;;;4913324;29;20291;-57
2022/03/30 08:18:29;;;;;;;0.68;0.57;;;21.60;59.10;;;;;;4913842;29;20311;-64
2022/03/30 08:23:46;;;;;;;2.42;1.15;;;21.60;59.70;;;;;;4913284;29;20332;-62
2022/03/30 08:26:18;;;;;;;4.72;1.40;;;21.60;60.00;;;;;;4913699;29;20291;-62
2022/03/30 08:28:48;;;;;;;6.05;1.88;;;21.60;61.80;;;;;;4913703;29;20227;-57
2022/03/30 08:31:19;;;;;;;11.65;1.70;;;21.60;62.40;;;;;;4913594;29;20279;-58
2022/03/30 08:33:49;;;;;;;3.95;1.40;;;21.60;62.40;;;;;;4913986;29;20622;-57
2022/03/30 08:36:20;;;;;;;4.40;1.33;;;21.60;62.40;;;;;;4914070;29;20279;-55
2022/03/30 08:38:50;;;;;;;9.40;1.85;;;21.60;62.50;;;;;;4913658;29;20778;-53
2022/03/30 08:41:23;;;;;;;3.97;1.92;;;21.60;62.90;;;;;;4914060;29;20372;-61
2022/03/30 08:43:53;;;;;;;4.05;1.45;;;21.60;63.20;;;;;;4916439;29;20299;-60
2022/03/30 08:46:24;;;;;;;3.00;1.58;;;21.70;63.30;;;;;;4917241;29;20211;-56
2022/03/30 08:48:54;;;;;;;4.88;2.08;;;21.70;63.30;;;;;;4916938;29;20216;-59
2022/03/30 08:51:26;;;;;;;8.18;1.55;;;21.70;63.20;;;;;;4916992;29;20256;-53
2022/03/30 08:53:56;;;;;;;3.95;1.60;;;21.70;63.10;;;;;;4898059;29;20243;-59
2022/03/30 08:56:30;;;;;;;5.40;2.53;;;21.70;62.90;;;;;;4898782;29;20354;-52
2022/03/30 08:59:06;;;;;;;6.93;1.95;;;21.70;63.00;;;;;;4898610;29;20312;-57
2022/03/30 09:01:38;;;;;;;4.53;1.58;;;21.70;62.90;;;;;;4909905;29;20746;-59
2022/03/30 09:04:11;;;;;;;6.38;2.15;;;21.70;62.70;;;;;;4917316;29;20264;-60
2022/03/30 09:06:44;;;;;;;5.75;1.83;;;21.70;62.60;;;;;;4917519;29;20196;-57
2022/03/30 09:09:17;;;;;;;3.92;1.83;;;21.70;62.40;;;;;;4917114;29;20278;-61
2022/03/30 09:11:55;;;;;;;3.85;1.90;;;21.70;62.30;;;;;;4917275;29;20199;-58
2022/03/30 09:14:27;;;;;;;4.65;2.00;;;21.70;62.30;;;;;;4917312;29;20261;-58
2022/03/30 09:16:59;;;;;;;5.22;1.95;;;21.70;62.30;;;;;;4916870;29;20630;-58
2022/03/30 09:19:36;;;;;;;3.08;1.80;;;21.60;62.20;;;;;;4917175;29;20307;-61
2022/03/30 09:22:08;;;;;;;3.40;1.63;;;21.60;62.20;;;;;;4916723;29;20223;-59
2022/03/30 09:24:39;;;;;;;4.38;2.10;;;21.60;62.20;;;;;;4916618;29;20291;-57
2022/03/30 09:27:16;;;;;;;5.30;2.92;;;21.70;62.20;;;;;;4916510;29;20208;-57
2022/03/30 09:29:47;;;;;;;7.80;3.47;;;21.60;62.30;;;;;;4916445;29;20222;-53
2022/03/30 09:32:17;;;;;;;5.70;2.70;;;21.60;62.50;;;;;;4916517;29;20206;-55
2022/03/30 09:34:52;;;;;;;5.32;2.40;;;21.60;62.80;;;;;;4917122;29;20201;-54
2022/03/30 09:37:23;;;;;;;3.88;2.33;;;21.60;62.80;;;;;;4916617;29;20307;-56
2022/03/30 09:39:53;;;;;;;4.55;2.40;;;21.60;62.60;;;;;;4916838;29;20728;-53
2022/03/30 09:42:30;;;;;;;4.03;2.60;;;21.60;62.50;;;;;;4917299;29;20326;-55
2022/03/30 09:45:01;;;;;;;5.63;2.40;;;21.60;62.30;;;;;;4916682;29;20291;-57
2022/03/30 09:47:40;;;;;;;6.38;2.55;;;21.60;62.20;;;;;;4916359;29;20311;-56
2022/03/30 09:50:11;;;;;;;4.35;2.30;;;21.60;62.10;;;;;;4915763;29;20240;-57
2022/03/30 09:52:45;;;;;;;3.70;2.38;;;21.60;61.90;;;;;;4932910;29;20279;-61
2022/03/30 09:55:15;;;;;;;3.97;2.53;;;21.60;61.80;;;;;;4932361;29;20206;-49
2022/03/30 09:57:50;;;;;;;3.63;1.90;;;21.50;61.60;;;;;;4932981;29;20258;-58
2022/03/30 10:00:21;;;;;;;3.35;2.10;;;21.60;61.60;;;;;;4933936;29;20239;-59
2022/03/30 10:02:53;;;;;;;2.90;2.15;;;21.50;61.30;;;;;;4932244;29;20230;-57
2022/03/30 10:05:25;;;;;;;3.75;1.90;;;21.60;61.30;;;;;;4934437;29;20446;-53
2022/03/30 10:07:56;;;;;;;2.80;2.00;;;21.60;61.20;;;;;;4933723;29;20460;-55
2022/03/30 10:10:27;;;;;;;3.00;2.08;;;21.50;61.20;;;;;;4930453;29;20254;-61
2022/03/30 10:13:00;;;;;;;4.10;2.13;;;21.50;61.20;;;;;;4933148;29;20279;-54
2022/03/30 10:15:30;;;;;;;4.68;2.47;;;21.50;61.20;;;;;;4933219;29;20282;-57
2022/03/30 10:18:01;;;;;;;3.05;2.08;;;21.50;61.20;;;;;;4933289;29;20340;-52
2022/03/30 10:20:31;;;;;;;3.60;2.20;;;21.50;61.20;;;;;;4932153;29;20290;-56
2022/03/30 10:23:23;;;;;;;3.75;2.38;;;21.40;61.10;;;;;;4932844;29;20230;-56
2022/03/30 10:26:03;;;;;;;3.13;2.00;;;21.40;61.00;;;;;;4933658;29;20200;-57
2022/03/30 10:28:52;;;;;;;3.67;1.95;;;21.50;61.00;;;;;;4933588;29;20310;-56
2022/03/30 10:31:26;;;;;;;2.92;2.00;;;21.40;60.90;;;;;;4933557;29;20195;-57
2022/03/30 10:33:56;;;;;;;3.72;2.17;;;21.40;60.80;;;;;;4932148;29;20945;-55
2022/03/30 10:36:28;;;;;;;5.32;2.00;;;21.40;60.70;;;;;;4933015;29;20263;-55
2022/03/30 10:39:27;;;;;;;3.60;1.92;;;21.40;60.70;;;;;;4926743;29;20252;-62
2022/03/30 10:42:06;;;;;;;2.95;1.83;;;21.40;60.60;;;;;;4917532;29;20248;-62
2022/03/30 10:44:43;;;;;;;2.72;1.75;;;21.40;60.50;;;;;;4916389;29;20203;-61
2022/03/30 10:47:16;;;;;;;2.97;1.90;;;21.40;60.50;;;;;;4915435;29;20283;-61
2022/03/30 10:49:50;;;;;;;2.90;1.90;;;21.40;60.40;;;;;;4915335;29;20210;-60
2022/03/30 10:52:35;;;;;;;3.28;1.80;;;21.30;60.40;;;;;;4915225;29;20272;-60
2022/03/30 10:55:31;;;;;;;2.53;1.65;;;21.30;60.40;;;;;;4915164;29;20286;-61
2022/03/30 10:58:03;;;;;;;4.60;1.73;;;21.30;60.30;;;;;;4915356;29;20232;-64
2022/03/30 11:00:37;;;;;;;2.55;1.83;;;21.30;60.30;;;;;;4914912;29;20271;-63
2022/03/30 11:03:14;;;;;;;3.85;1.80;;;21.30;60.30;;;;;;4915143;29;20262;-59
2022/03/30 11:05:48;;;;;;;4.30;2.20;;;21.30;60.30;;;;;;4914464;29;20711;-60
2022/03/30 11:08:57;;;;;;;3.55;1.90;;;21.30;60.30;;;;;;4915280;29;20216;-59
2022/03/30 11:11:30;;;;;;;2.72;2.10;;;21.30;60.30;;;;;;4896718;29;20200;-64
2022/03/30 11:14:25;;;;;;;3.30;1.98;;;21.20;60.20;;;;;;4896544;29;20201;-61
2022/03/30 11:16:58;;;;;;;3.17;2.17;;;21.20;60.30;;;;;;4896803;29;20197;-59
2022/03/30 11:19:33;;;;;;;2.17;1.80;;;21.20;60.30;;;;;;4896343;29;20325;-60
2022/03/30 11:22:14;;;;;;;2.88;1.63;;;21.20;60.30;;;;;;4900759;29;20622;-56
2022/03/30 11:24:46;;;;;;;3.72;2.30;;;21.20;60.30;;;;;;4914528;29;20231;-63
2022/03/30 11:27:20;;;;;;;4.28;2.10;;;21.20;60.20;;;;;;4915144;29;20196;-61
2022/03/30 11:30:12;;;;;;;3.17;2.22;;;21.20;60.20;;;;;;4914862;29;20732;-62
2022/03/30 11:33:01;;;;;;;3.28;1.90;;;21.10;60.10;;;;;;4915036;29;20299;-62
2022/03/30 11:35:35;;;;;;;3.35;2.05;;;21.20;60.20;;;;;;4914829;29;20418;-62
2022/03/30 11:38:11;;;;;;;3.58;1.98;;;21.20;60.10;;;;;;4914579;29;20255;-62
2022/03/30 11:40:44;;;;;;;3.28;1.75;;;21.20;60.10;;;;;;4914247;29;20196;-60
2022/03/30 11:43:16;;;;;;;3.65;2.10;;;21.10;60.00;;;;;;4914662;29;20312;-61
2022/03/30 11:45:46;;;;;;;3.30;2.10;;;21.10;60.00;;;;;;4914371;29;20231;-63
2022/03/30 11:48:19;;;;;;;2.45;1.95;;;21.10;60.00;;;;;;4914386;29;20220;-62
2022/03/30 11:50:51;;;;;;;3.17;2.13;;;21.10;60.00;;;;;;4914912;29;20803;-59
2022/03/30 11:53:27;;;;;;;2.42;1.90;;;21.10;60.00;;;;;;4914383;29;20291;-61
2022/03/30 11:55:59;;;;;;;3.17;1.80;;;21.10;60.10;;;;;;4913849;29;20200;-61
2022/03/30 11:58:31;;;;;;;3.47;1.92;;;21.10;60.00;;;;;;4914352;29;20315;-62
2022/03/30 12:01:03;;;;;;;3.17;2.00;;;21.10;60.10;;;;;;4914240;29;20287;-61
2022/03/30 12:03:36;;;;;;;1.67;1.25;;;21.10;60.10;;;;;;4914305;29;20311;-62
2022/03/30 12:06:08;;;;;;;2.08;1.85;;;21.10;60.10;;;;;;4914134;29;20723;-62
2022/03/30 12:08:46;;;;;;;2.40;1.77;;;21.00;60.00;;;;;;4913929;29;20224;-62
2022/03/30 12:11:19;;;;;;;2.22;1.70;;;21.00;60.00;;;;;;4913978;29;20207;-63
2022/03/30 12:13:54;;;;;;;1.98;1.75;;;21.00;59.90;;;;;;4914005;29;20235;-61
2022/03/30 12:16:25;;;;;;;3.35;2.03;;;21.00;59.90;;;;;;4913822;29;20202;-62
2022/03/30 12:18:58;;;;;;;2.65;2.00;;;21.00;59.90;;;;;;4913724;29;20306;-55
2022/03/30 12:21:31;;;;;;;3.92;1.90;;;21.00;59.90;;;;;;4912969;29;20205;-59
2022/03/30 12:24:03;;;;;;;2.65;1.52;;;21.00;59.90;;;;;;4913605;29;20342;-62
2022/03/30 12:26:34;;;;;;;2.22;1.63;;;21.00;59.90;;;;;;4914077;29;20231;-61
2022/03/30 12:29:08;;;;;;;2.65;2.03;;;21.00;59.80;;;;;;4914007;29;20303;-61
2022/03/30 12:31:40;;;;;;;1.65;1.50;;;21.00;59.90;;;;;;4914178;29;20290;-59
2022/03/30 12:34:17;;;;;;;2.88;1.92;;;21.00;59.80;;;;;;4913357;29;20303;-62
2022/03/30 12:36:50;;;;;;;2.30;1.50;;;20.90;59.80;;;;;;4913378;29;20192;-62
2022/03/30 12:39:22;;;;;;;1.77;1.40;;;20.90;59.80;;;;;;4913176;29;20307;-62
2022/03/30 12:42:03;;;;;;;2.10;1.60;;;21.00;59.80;;;;;;4913642;29;20291;-61
2022/03/30 12:44:36;;;;;;;2.13;1.60;;;20.90;59.80;;;;;;4913355;29;20319;-59
2022/03/30 12:47:08;;;;;;;2.47;1.70;;;20.90;59.80;;;;;;4913321;29;20208;-63
2022/03/30 12:49:43;;;;;;;2.60;1.85;;;20.90;59.80;;;;;;4913251;29;20869;-63
2022/03/30 12:52:15;;;;;;;1.92;1.50;;;20.90;59.80;;;;;;4914100;29;20222;-61
2022/03/30 12:54:47;;;;;;;2.33;1.63;;;20.90;59.90;;;;;;4913562;29;20303;-60
2022/03/30 12:57:30;;;;;;;2.33;1.73;;;20.90;59.80;;;;;;4913522;29;20769;-63
2022/03/30 13:00:19;;;;;;;1.85;1.40;;;20.90;59.80;;;;;;4913605;29;20207;-63
2022/03/30 13:02:49;;;;;;;2.85;1.58;;;20.90;59.70;;;;;;4913639;29;20232;-63
2022/03/30 13:05:28;;;;;;;1.80;1.50;;;20.90;59.70;;;;;;4913628;29;20252;-63
2022/03/30 13:07:58;;;;;;;1.95;1.50;;;20.90;59.70;;;;;;4913267;29;20219;-62
2022/03/30 13:10:29;;;;;;;2.05;1.58;;;20.90;59.70;;;;;;4913539;29;20275;-62
2022/03/30 13:12:59;;;;;;;2.85;1.58;;;20.90;59.70;;;;;;4913461;29;20200;-62
2022/03/30 13:15:36;;;;;;;2.22;1.50;;;20.90;59.70;;;;;;4913290;29;20295;-58
2022/03/30 13:18:10;;;;;;;2.17;1.35;;;20.90;59.70;;;;;;4913344;29;20262;-60
2022/03/30 13:20:54;;;;;;;1.80;1.10;;;20.90;59.70;;;;;;4913656;29;20204;-58
2022/03/30 13:23:35;;;;;;;1.70;1.27;;;20.80;59.60;;;;;;4913476;29;20220;-62
2022/03/30 13:26:25;;;;;;;1.77;1.40;;;20.90;59.70;;;;;;4913061;29;20290;-59